createdAt,value
2017-07-10T00:01:36.565Z,16.00
2017-07-10T00:04:04.122Z,15.90
2017-07-10T00:06:31.844Z,16.00
2017-07-10T00:17:38.133Z,16.10
2017-07-10T00:20:06.448Z,16.10
2017-07-10T00:22:34.004Z,16.10
2017-07-10T00:25:01.587Z,16.00
2017-07-10T00:27:29.136Z,16.00
2017-07-10T00:29:56.758Z,16.10
2017-07-10T00:32:24.369Z,16.20
2017-07-10T00:34:51.933Z,16.20
2017-07-10T00:37:19.515Z,16.40
2017-07-10T00:39:47.160Z,16.40
2017-07-10T00:42:14.716Z,16.40
2017-07-10T00:44:42.282Z,16.40
2017-07-10T00:47:10.643Z,16.30
2017-07-10T00:49:38.192Z,16.20
2017-07-10T00:52:05.752Z,16.30
2017-07-10T00:54:33.645Z,16.50
2017-07-10T00:57:01.201Z,16.50
2017-07-10T00:59:28.773Z,16.60
2017-07-10T01:01:57.334Z,16.80
2017-07-10T01:04:24.896Z,16.70
2017-07-10T01:06:52.451Z,16.70
2017-07-10T01:09:20.189Z,16.60
2017-07-10T01:11:47.748Z,16.70
2017-07-10T01:14:15.300Z,16.70
2017-07-10T01:16:43.020Z,16.70
2017-07-10T01:19:11.338Z,16.60
2017-07-10T01:21:38.911Z,16.60
2017-07-10T01:24:06.804Z,16.50
2017-07-10T01:26:34.360Z,16.50
2017-07-10T01:29:01.919Z,16.50
2017-07-10T01:31:29.634Z,16.40
2017-07-10T01:33:57.190Z,16.40
2017-07-10T01:36:24.744Z,16.40
2017-07-10T01:38:52.482Z,16.30
2017-07-10T01:41:20.055Z,16.20
2017-07-10T01:43:48.375Z,16.10
2017-07-10T01:46:16.103Z,16.10
2017-07-10T01:48:43.667Z,16.20
2017-07-10T01:51:11.233Z,16.10
2017-07-10T01:53:38.989Z,16.10
2017-07-10T01:56:06.544Z,16.00
2017-07-10T01:58:34.110Z,16.00
2017-07-10T02:01:01.874Z,15.90
2017-07-10T02:03:29.420Z,15.90
2017-07-10T02:05:56.979Z,15.90
2017-07-10T02:08:24.591Z,15.90
2017-07-10T02:10:52.168Z,15.80
2017-07-10T02:13:19.726Z,15.80
2017-07-10T02:15:47.468Z,15.70
2017-07-10T02:18:15.034Z,15.70
2017-07-10T02:20:42.586Z,15.60
2017-07-10T02:23:10.309Z,15.60
2017-07-10T02:25:37.868Z,15.50
2017-07-10T02:28:05.422Z,15.40
2017-07-10T02:30:33.186Z,15.60
2017-07-10T02:33:00.737Z,15.50
2017-07-10T02:35:29.051Z,15.40
2017-07-10T02:37:56.778Z,15.40
2017-07-10T02:40:26.867Z,15.50
2017-07-10T02:42:54.427Z,15.50
2017-07-10T02:45:22.055Z,15.50
2017-07-10T02:47:49.611Z,15.50
2017-07-10T02:50:17.197Z,15.40
2017-07-10T02:52:45.073Z,15.50
2017-07-10T02:55:12.637Z,15.50
2017-07-10T02:57:40.194Z,15.50
2017-07-10T03:00:07.937Z,15.40
2017-07-10T03:02:36.469Z,15.40
2017-07-10T03:05:04.801Z,15.40
2017-07-10T03:07:33.301Z,15.40
2017-07-10T03:10:00.877Z,15.40
2017-07-10T03:12:29.212Z,15.50
2017-07-10T03:14:56.805Z,15.50
2017-07-10T03:17:25.187Z,15.40
2017-07-10T03:19:53.535Z,15.40
2017-07-10T03:22:21.270Z,15.40
2017-07-10T03:24:48.844Z,15.30
2017-07-10T03:27:16.425Z,15.30
2017-07-10T03:29:44.015Z,15.40
2017-07-10T03:32:11.598Z,15.50
2017-07-10T03:34:39.165Z,15.50
2017-07-10T03:37:06.901Z,15.60
2017-07-10T03:39:34.487Z,15.60
2017-07-10T03:42:02.060Z,15.60
2017-07-10T03:44:29.679Z,15.70
2017-07-10T03:46:57.261Z,15.70
2017-07-10T03:49:24.852Z,15.70
2017-07-10T03:51:52.462Z,15.70
2017-07-10T03:54:20.052Z,15.70
2017-07-10T03:56:47.621Z,15.80
2017-07-10T03:59:15.248Z,15.80
2017-07-10T04:01:42.829Z,15.80
2017-07-10T04:04:10.405Z,15.80
2017-07-10T04:06:38.144Z,15.90
2017-07-10T04:09:05.704Z,15.90
2017-07-10T04:11:33.273Z,15.90
2017-07-10T04:14:00.941Z,16.00
2017-07-10T04:16:28.488Z,16.00
2017-07-10T04:18:56.038Z,16.00
2017-07-10T04:21:23.765Z,16.00
2017-07-10T04:23:51.352Z,16.10
2017-07-10T04:26:18.897Z,16.10
2017-07-10T04:28:46.509Z,16.20
2017-07-10T04:31:14.070Z,16.30
2017-07-10T04:33:41.729Z,16.30
2017-07-10T04:36:09.625Z,16.30
2017-07-10T04:38:37.177Z,16.30
2017-07-10T04:41:04.958Z,16.30
2017-07-10T04:43:32.850Z,16.30
2017-07-10T04:46:00.416Z,16.50
2017-07-10T04:48:27.963Z,16.50
2017-07-10T04:50:55.730Z,16.50
2017-07-10T04:53:24.049Z,16.70
2017-07-10T04:55:53.577Z,16.70
2017-07-10T04:58:21.164Z,16.90
2017-07-10T05:00:49.496Z,17.10
2017-07-10T05:03:17.071Z,17.00
2017-07-10T05:05:44.855Z,17.10
2017-07-10T05:08:12.428Z,17.20
2017-07-10T05:10:39.996Z,17.30
2017-07-10T05:13:08.156Z,17.40
2017-07-10T05:15:36.472Z,17.50
2017-07-10T05:18:04.019Z,17.50
2017-07-10T05:20:32.016Z,17.50
2017-07-10T05:22:59.559Z,17.60
2017-07-10T05:25:27.121Z,17.80
2017-07-10T05:27:54.717Z,17.80
2017-07-10T05:30:22.755Z,18.00
2017-07-10T05:32:50.336Z,18.20
2017-07-10T05:35:18.013Z,18.30
2017-07-10T05:37:45.576Z,18.40
2017-07-10T05:40:13.916Z,18.40
2017-07-10T05:42:41.814Z,18.50
2017-07-10T05:45:09.381Z,18.50
2017-07-10T05:47:37.723Z,18.50
2017-07-10T05:50:05.325Z,18.50
2017-07-10T05:52:33.652Z,18.70
2017-07-10T05:55:01.230Z,18.60
2017-07-10T05:57:28.828Z,18.70
2017-07-10T05:59:57.162Z,19.00
2017-07-10T06:02:24.734Z,18.90
2017-07-10T06:04:52.517Z,19.00
2017-07-10T06:07:20.866Z,19.20
2017-07-10T06:09:48.433Z,19.20
2017-07-10T06:12:16.048Z,19.30
2017-07-10T06:14:43.608Z,19.20
2017-07-10T06:17:11.168Z,19.10
2017-07-10T06:19:38.752Z,19.30
2017-07-10T06:22:06.311Z,19.30
2017-07-10T06:24:33.871Z,19.50
2017-07-10T06:27:01.659Z,19.50
2017-07-10T06:29:29.248Z,19.50
2017-07-10T06:31:56.807Z,19.50
2017-07-10T06:34:25.269Z,19.50
2017-07-10T06:36:52.825Z,19.50
2017-07-10T06:39:20.380Z,19.50
2017-07-10T06:41:48.001Z,19.50
2017-07-10T06:44:15.558Z,19.50
2017-07-10T06:46:43.170Z,19.50
2017-07-10T06:49:10.866Z,19.50
2017-07-10T06:51:38.416Z,19.50
2017-07-10T06:54:05.984Z,19.50
2017-07-10T06:56:33.916Z,19.50
2017-07-10T06:59:02.246Z,19.60
2017-07-10T07:01:29.805Z,19.60
2017-07-10T07:03:57.656Z,19.60
2017-07-10T07:06:25.213Z,19.60
2017-07-10T07:08:52.769Z,19.50
2017-07-10T07:11:20.388Z,19.50
2017-07-10T07:13:47.948Z,19.50
2017-07-10T07:16:15.508Z,19.50
2017-07-10T07:18:43.207Z,19.50
2017-07-10T07:21:10.764Z,19.50
2017-07-10T07:23:38.328Z,19.50
2017-07-10T07:26:05.946Z,19.50
2017-07-10T07:28:33.512Z,19.40
2017-07-10T07:31:01.075Z,19.40
2017-07-10T07:33:29.453Z,19.30
2017-07-10T07:35:57.785Z,19.30
2017-07-10T07:38:25.343Z,19.30
2017-07-10T07:40:53.232Z,19.30
2017-07-10T07:43:20.793Z,19.30
2017-07-10T07:45:48.357Z,19.30
2017-07-10T07:48:15.977Z,19.30
2017-07-10T07:50:44.384Z,19.30
2017-07-10T07:53:12.014Z,19.30
2017-07-10T07:55:39.769Z,19.20
2017-07-10T07:58:07.336Z,19.20
2017-07-10T08:00:34.886Z,19.20
2017-07-10T08:03:02.480Z,19.20
2017-07-10T08:05:30.046Z,19.20
2017-07-10T08:07:57.614Z,19.20
2017-07-10T08:10:25.218Z,19.10
2017-07-10T08:12:53.656Z,19.10
2017-07-10T08:15:21.207Z,19.20
2017-07-10T08:17:48.989Z,19.10
2017-07-10T08:20:16.549Z,19.20
2017-07-10T08:22:44.121Z,19.10
2017-07-10T08:25:12.684Z,19.10
2017-07-10T08:27:40.270Z,19.10
2017-07-10T08:30:08.592Z,19.10
2017-07-10T08:32:36.501Z,19.20
2017-07-10T08:35:04.065Z,19.20
2017-07-10T08:37:32.388Z,19.00
2017-07-10T08:40:00.096Z,19.00
2017-07-10T08:42:28.539Z,19.20
2017-07-10T08:44:56.132Z,19.10
2017-07-10T08:47:23.814Z,19.20
2017-07-10T08:49:52.136Z,19.20
2017-07-10T08:52:19.687Z,19.20
2017-07-10T08:54:47.369Z,19.20
2017-07-10T08:57:14.923Z,19.30
2017-07-10T08:59:42.500Z,19.30
2017-07-10T09:02:10.110Z,19.30
2017-07-10T09:04:37.671Z,19.20
2017-07-10T09:07:05.231Z,19.00
2017-07-10T09:09:33.164Z,19.10
2017-07-10T09:12:01.483Z,19.20
2017-07-10T09:14:29.040Z,19.20
2017-07-10T09:16:56.873Z,19.20
2017-07-10T09:19:25.201Z,19.30
2017-07-10T09:21:52.784Z,19.30
2017-07-10T09:24:20.474Z,19.30
2017-07-10T09:26:48.800Z,19.40
2017-07-10T09:29:16.359Z,19.30
2017-07-10T09:31:44.267Z,19.40
2017-07-10T09:34:11.836Z,19.40
2017-07-10T09:36:40.156Z,19.40
2017-07-10T09:39:07.781Z,19.50
2017-07-10T09:41:36.108Z,19.30
2017-07-10T09:44:03.677Z,19.30
2017-07-10T09:46:31.392Z,19.30
2017-07-10T09:48:59.009Z,19.30
2017-07-10T09:51:26.569Z,19.30
2017-07-10T09:53:54.344Z,19.20
2017-07-10T09:56:21.897Z,19.20
2017-07-10T09:58:49.455Z,19.00
2017-07-10T10:01:17.157Z,18.90
2017-07-10T10:03:44.840Z,18.90
2017-07-10T10:06:12.440Z,18.90
2017-07-10T10:08:40.061Z,18.90
2017-07-10T10:11:07.632Z,18.90
2017-07-10T10:13:35.242Z,18.90
2017-07-10T10:16:03.803Z,18.90
2017-07-10T10:18:31.441Z,18.90
2017-07-10T10:20:58.998Z,18.90
2017-07-10T10:23:26.797Z,18.90
2017-07-10T10:25:54.359Z,18.90
2017-07-10T10:28:22.716Z,18.70
2017-07-10T10:30:50.327Z,18.70
2017-07-10T10:33:17.899Z,18.70
2017-07-10T10:35:45.457Z,18.60
2017-07-10T10:38:13.376Z,18.60
2017-07-10T10:40:40.949Z,18.60
2017-07-10T10:43:09.282Z,18.50
2017-07-10T10:45:37.681Z,18.50
2017-07-10T10:48:05.257Z,18.50
2017-07-10T10:50:32.816Z,18.50
2017-07-10T10:53:00.531Z,18.60
2017-07-10T10:55:28.114Z,18.60
2017-07-10T10:57:55.678Z,18.70
2017-07-10T11:00:23.302Z,18.70
2017-07-10T11:02:50.869Z,18.70
2017-07-10T11:05:18.429Z,18.60
2017-07-10T11:07:46.041Z,18.70
2017-07-10T11:10:14.371Z,18.60
2017-07-10T11:12:41.956Z,18.50
2017-07-10T11:15:09.828Z,18.50
2017-07-10T11:17:37.426Z,18.50
2017-07-10T11:20:05.012Z,18.50
2017-07-10T11:22:32.967Z,18.60
2017-07-10T11:25:00.571Z,18.50
2017-07-10T11:27:28.244Z,18.40
2017-07-10T11:29:55.988Z,18.30
2017-07-10T11:32:23.888Z,18.40
2017-07-10T11:34:52.215Z,18.40
2017-07-10T11:37:19.910Z,18.40
2017-07-10T11:39:47.473Z,18.20
2017-07-10T11:42:15.040Z,18.20
2017-07-10T11:44:42.948Z,18.30
2017-07-10T11:47:10.520Z,18.30
2017-07-10T11:49:38.090Z,18.30
2017-07-10T11:52:06.097Z,18.20
2017-07-10T11:54:33.651Z,18.20
2017-07-10T11:57:01.206Z,18.20
2017-07-10T11:59:28.820Z,18.20
2017-07-10T12:01:56.384Z,18.00
2017-07-10T12:04:23.949Z,18.00
2017-07-10T12:06:51.568Z,18.10
2017-07-10T12:09:20.716Z,18.20
2017-07-10T12:11:48.281Z,18.20
2017-07-10T12:14:16.036Z,18.20
2017-07-10T12:16:43.657Z,18.20
2017-07-10T12:19:11.226Z,18.30
2017-07-10T12:21:38.835Z,18.20
2017-07-10T12:24:06.405Z,18.20
2017-07-10T12:26:35.581Z,18.10
2017-07-10T12:29:03.320Z,18.10
2017-07-10T12:31:31.752Z,18.20
2017-07-10T12:33:59.453Z,18.20
2017-07-10T12:36:27.241Z,18.00
2017-07-10T12:38:55.603Z,18.10
2017-07-10T12:41:23.175Z,18.00
2017-07-10T12:43:50.920Z,17.90
2017-07-10T12:46:18.623Z,17.80
2017-07-10T12:48:46.277Z,17.90
2017-07-10T12:51:13.983Z,17.90
2017-07-10T12:53:42.330Z,17.90
2017-07-10T12:56:09.894Z,17.90
2017-07-10T12:58:37.692Z,17.90
2017-07-10T13:01:05.270Z,17.90
2017-07-10T13:03:32.840Z,18.00
2017-07-10T13:06:00.729Z,18.00
2017-07-10T13:08:28.343Z,18.00
2017-07-10T13:10:55.914Z,18.00
2017-07-10T13:13:23.682Z,17.90
2017-07-10T13:15:51.280Z,17.90
2017-07-10T13:18:18.852Z,17.80
2017-07-10T13:20:46.934Z,17.70
2017-07-10T13:23:15.290Z,17.60
2017-07-10T13:25:42.862Z,17.60
2017-07-10T13:28:10.599Z,17.60
2017-07-10T13:30:38.161Z,17.60
2017-07-10T13:33:05.729Z,17.50
2017-07-10T13:35:33.495Z,17.40
2017-07-10T13:38:01.085Z,17.50
2017-07-10T13:40:29.427Z,17.50
2017-07-10T13:42:57.226Z,17.40
2017-07-10T13:45:24.794Z,17.40
2017-07-10T13:47:53.131Z,17.50
2017-07-10T13:50:20.920Z,17.40
2017-07-10T13:52:48.491Z,17.50
2017-07-10T13:55:16.066Z,17.60
2017-07-10T13:57:43.973Z,17.60
2017-07-10T14:00:11.608Z,17.60
2017-07-10T14:02:39.176Z,17.60
2017-07-10T14:05:07.668Z,17.60
2017-07-10T14:07:35.223Z,17.70
2017-07-10T14:10:02.785Z,17.70
2017-07-10T14:12:30.704Z,17.70
2017-07-10T14:14:59.023Z,17.80
2017-07-10T14:17:26.581Z,17.80
2017-07-10T14:19:54.176Z,17.90
2017-07-10T14:22:21.735Z,17.90
2017-07-10T14:24:49.297Z,18.00
2017-07-10T14:27:16.912Z,18.00
2017-07-10T14:29:44.456Z,18.00
2017-07-10T14:32:12.134Z,18.00
2017-07-10T14:34:40.565Z,18.10
2017-07-10T14:37:08.129Z,18.10
2017-07-10T14:39:35.689Z,18.20
2017-07-10T14:42:04.052Z,18.00
2017-07-10T14:44:31.609Z,18.00
2017-07-10T14:46:59.162Z,18.10
2017-07-10T14:49:26.793Z,18.20
2017-07-10T14:51:54.361Z,18.20
2017-07-10T14:54:21.915Z,18.20
2017-07-10T14:56:49.629Z,18.20
2017-07-10T14:59:17.188Z,18.20
2017-07-10T15:01:45.517Z,18.20
2017-07-10T15:04:13.425Z,18.20
2017-07-10T15:06:41.026Z,18.30
2017-07-10T15:09:08.580Z,18.40
2017-07-10T15:11:36.508Z,18.40
2017-07-10T15:14:04.070Z,18.40
2017-07-10T15:16:31.725Z,18.40
2017-07-10T15:18:59.413Z,18.40
2017-07-10T15:21:27.782Z,18.30
2017-07-10T15:23:56.107Z,18.20
2017-07-10T15:26:23.860Z,18.20
2017-07-10T15:28:51.434Z,18.20
2017-07-10T15:31:19.013Z,18.20
2017-07-10T15:33:46.814Z,18.20
2017-07-10T15:36:15.138Z,18.20
2017-07-10T15:38:42.724Z,18.20
2017-07-10T15:41:10.344Z,18.30
2017-07-10T15:43:37.915Z,18.30
2017-07-10T15:46:05.508Z,18.40
2017-07-10T15:48:33.121Z,18.40
2017-07-10T15:51:00.699Z,18.30
2017-07-10T15:53:28.288Z,18.20
2017-07-10T15:55:56.180Z,18.10
2017-07-10T15:58:23.798Z,18.20
2017-07-10T16:00:51.400Z,18.30
2017-07-10T16:03:19.035Z,18.40
2017-07-10T16:05:46.597Z,18.40
2017-07-10T16:08:14.170Z,18.50
2017-07-10T16:10:41.867Z,18.50
2017-07-10T16:13:09.451Z,18.50
2017-07-10T16:15:37.030Z,18.50
2017-07-10T16:18:04.643Z,18.60
2017-07-10T16:20:32.272Z,18.70
2017-07-10T16:23:00.591Z,18.60
2017-07-10T16:25:28.376Z,18.60
2017-07-10T16:27:55.974Z,18.50
2017-07-10T16:30:24.336Z,18.50
2017-07-10T16:32:52.350Z,18.40
2017-07-10T16:35:19.937Z,18.60
2017-07-10T16:37:47.507Z,18.60
2017-07-10T16:40:15.131Z,18.80
2017-07-10T16:42:42.702Z,18.90
2017-07-10T16:45:10.301Z,19.00
2017-07-10T16:47:38.038Z,19.00
2017-07-10T16:50:05.616Z,19.10
2017-07-10T16:52:33.190Z,19.20
2017-07-10T16:55:01.597Z,19.20
2017-07-10T16:57:29.181Z,19.20
2017-07-10T16:59:56.743Z,19.20
2017-07-10T17:02:24.543Z,19.20
2017-07-10T17:04:52.116Z,19.20
2017-07-10T17:07:20.681Z,19.00
2017-07-10T17:09:48.529Z,19.00
2017-07-10T17:12:16.113Z,18.90
2017-07-10T17:14:43.697Z,18.90
2017-07-10T17:17:12.385Z,18.90
2017-07-10T17:19:40.722Z,18.90
2017-07-10T17:22:08.316Z,18.90
2017-07-10T17:24:36.738Z,18.90
2017-07-10T17:27:04.316Z,18.90
2017-07-10T17:29:31.893Z,18.90
2017-07-10T17:31:59.537Z,18.90
2017-07-10T17:34:27.123Z,19.00
2017-07-10T17:36:54.715Z,18.90
2017-07-10T17:39:22.440Z,18.90
2017-07-10T17:41:50.010Z,18.70
2017-07-10T17:44:18.365Z,18.70
2017-07-10T17:46:46.086Z,18.60
2017-07-10T17:49:13.656Z,18.70
2017-07-10T17:51:41.228Z,18.80
2017-07-10T17:54:08.837Z,18.70
2017-07-10T17:56:36.428Z,18.60
2017-07-10T17:59:04.037Z,18.70
2017-07-10T18:01:31.816Z,18.60
2017-07-10T18:04:00.148Z,18.50
2017-07-10T18:06:27.723Z,18.50
2017-07-10T18:08:55.497Z,18.60
2017-07-10T18:11:23.134Z,18.60
2017-07-10T18:13:50.701Z,18.60
2017-07-10T18:16:18.405Z,18.70
2017-07-10T18:18:46.019Z,18.60
2017-07-10T18:21:13.584Z,18.50
2017-07-10T18:23:41.477Z,18.50
2017-07-10T18:26:09.406Z,18.40
2017-07-10T18:28:36.964Z,18.40
2017-07-10T18:31:04.737Z,18.40
2017-07-10T18:33:32.301Z,18.40
2017-07-10T18:36:01.794Z,18.40
2017-07-10T18:38:29.798Z,18.20
2017-07-10T18:40:57.373Z,18.20
2017-07-10T18:43:25.759Z,18.40
2017-07-10T18:45:54.436Z,18.50
2017-07-10T18:48:22.809Z,18.50
2017-07-10T18:50:50.372Z,18.50
2017-07-10T18:53:18.934Z,18.50
2017-07-10T18:55:46.532Z,18.50
2017-07-10T18:58:14.105Z,18.50
2017-07-10T19:00:41.734Z,18.60
2017-07-10T19:03:10.160Z,18.50
2017-07-10T19:05:37.722Z,18.50
2017-07-10T19:08:05.353Z,18.50
2017-07-10T19:10:32.959Z,18.50
2017-07-10T19:13:00.524Z,18.50
2017-07-10T19:15:28.136Z,18.40
2017-07-10T19:17:55.714Z,18.40
2017-07-10T19:20:23.302Z,18.40
2017-07-10T19:22:51.068Z,18.40
2017-07-10T19:25:20.411Z,18.40
2017-07-10T19:27:48.023Z,18.30
2017-07-10T19:30:15.972Z,18.30
2017-07-10T19:32:43.613Z,18.30
2017-07-10T19:35:11.187Z,18.30
2017-07-10T19:37:38.928Z,18.30
2017-07-10T19:40:06.511Z,18.20
2017-07-10T19:42:34.091Z,18.20
2017-07-10T19:45:02.098Z,18.10
2017-07-10T19:47:30.432Z,18.00
2017-07-10T19:49:57.998Z,17.90
2017-07-10T19:52:25.749Z,17.90
2017-07-10T19:54:53.312Z,18.00
2017-07-10T19:57:20.871Z,18.00
2017-07-10T19:59:49.304Z,17.90
2017-07-10T20:02:17.666Z,17.70
2017-07-10T20:04:45.240Z,17.80
2017-07-10T20:07:13.001Z,17.70
2017-07-10T20:09:41.340Z,17.70
2017-07-10T20:12:08.915Z,17.60
2017-07-10T20:14:36.661Z,17.70
2017-07-10T20:17:06.827Z,17.60
2017-07-10T20:19:35.152Z,17.40
2017-07-10T20:22:03.050Z,17.50
2017-07-10T20:24:30.611Z,17.50
2017-07-10T20:26:58.169Z,17.50
2017-07-10T20:29:26.960Z,17.50
2017-07-10T20:31:54.531Z,17.50
2017-07-10T20:34:22.907Z,17.50
2017-07-10T20:36:51.292Z,17.50
2017-07-10T20:39:18.868Z,17.50
2017-07-10T20:41:46.431Z,17.40
2017-07-10T20:44:14.125Z,17.50
2017-07-10T20:46:41.697Z,17.50
2017-07-10T20:49:09.272Z,17.50
2017-07-10T20:51:36.872Z,17.40
2017-07-10T20:54:04.437Z,17.40
2017-07-10T20:56:32.024Z,17.40
2017-07-10T20:58:59.638Z,17.30
2017-07-10T21:01:28.684Z,17.40
2017-07-10T21:03:56.252Z,17.30
2017-07-10T21:06:23.896Z,17.30
2017-07-10T21:08:51.469Z,17.40
2017-07-10T21:11:19.032Z,17.40
2017-07-10T21:13:46.921Z,17.40
2017-07-10T21:16:14.509Z,17.40
2017-07-10T21:18:42.073Z,17.40
2017-07-10T21:21:09.766Z,17.40
2017-07-10T21:23:37.356Z,17.30
2017-07-10T21:26:04.932Z,17.20
2017-07-10T21:28:33.413Z,17.30
2017-07-10T21:31:01.748Z,17.20
2017-07-10T21:33:29.308Z,17.20
2017-07-10T21:35:57.754Z,17.20
2017-07-10T21:38:25.338Z,17.10
2017-07-10T21:40:52.913Z,17.10
2017-07-10T21:43:20.602Z,17.00
2017-07-10T21:45:48.167Z,17.10
2017-07-10T21:48:15.732Z,17.10
2017-07-10T21:50:44.956Z,17.00
2017-07-10T21:53:12.542Z,17.00
2017-07-10T21:55:40.120Z,16.90
2017-07-10T21:58:07.867Z,16.80
2017-07-10T22:00:35.438Z,16.80
2017-07-10T22:03:03.009Z,16.80
2017-07-10T22:05:30.834Z,16.70
2017-07-10T22:07:59.344Z,16.60
2017-07-10T22:10:26.995Z,16.50
2017-07-10T22:12:54.906Z,16.50
2017-07-10T22:15:24.252Z,16.30
2017-07-10T22:17:51.824Z,16.30
2017-07-10T22:20:19.593Z,16.10
2017-07-10T22:22:47.163Z,15.90
2017-07-10T22:25:14.755Z,15.90
2017-07-10T22:27:42.396Z,16.00
2017-07-10T22:30:09.967Z,16.00
2017-07-10T22:32:38.302Z,15.80
2017-07-10T22:35:06.040Z,15.80
2017-07-10T22:37:33.598Z,15.80
2017-07-10T22:40:01.197Z,15.70
2017-07-10T22:42:29.027Z,15.60
2017-07-10T22:44:56.599Z,15.70
2017-07-10T22:47:24.156Z,15.60
2017-07-10T22:49:52.164Z,15.40
2017-07-10T22:52:19.725Z,15.40
2017-07-10T22:54:47.313Z,15.40
2017-07-10T22:57:15.069Z,15.40
2017-07-10T22:59:43.396Z,15.30
2017-07-10T23:02:10.984Z,15.30
2017-07-10T23:04:38.701Z,15.30
2017-07-10T23:07:06.265Z,15.30
2017-07-10T23:09:33.829Z,15.20
2017-07-10T23:12:01.415Z,15.10
2017-07-10T23:14:28.980Z,15.10
2017-07-10T23:16:56.549Z,15.00
2017-07-10T23:19:24.167Z,15.00
2017-07-10T23:21:51.779Z,15.10
2017-07-10T23:24:19.434Z,15.20
2017-07-10T23:26:47.041Z,15.20
2017-07-10T23:29:14.600Z,15.20
2017-07-10T23:31:42.217Z,15.10
2017-07-10T23:34:09.805Z,15.00
2017-07-10T23:36:37.369Z,14.90
2017-07-10T23:39:04.940Z,14.90
2017-07-10T23:41:32.688Z,14.90
2017-07-10T23:44:01.076Z,14.90
2017-07-10T23:46:28.649Z,14.90
2017-07-10T23:48:56.667Z,15.00
2017-07-10T23:51:24.238Z,15.00
2017-07-10T23:53:51.799Z,15.10
2017-07-10T23:56:20.349Z,15.30
2017-07-10T23:58:47.917Z,15.30
